KCRG

Jacksonville Executive at Craig Airport

Jacksonville, Florida, USA
METAR KCRG 191553Z 17010KT 10SM CLR 21/13 A3002 RMK AO2 SLP166 T02060128
Observed Flight Rules
Jan-19 @ 15:53 UTC (47 minutes ago) Visual Flight Rules
Wind Visibility Clouds
170° at 10 knots 10 miles
  • Clear skies
Temperatures Readings
Current 21°C / 70°F
Dewpoint 13°C / 55°F
Humidity 60%
Altimeter 30.02" Hg
Pressure 1016.6 hPa
Elevation 13
METAR KCRG 191553Z 17010KT 10SM CLR 21/13 A3002 RMK AO2 SLP166 T02060128
Observed Flight Rules
Jan-19 @ 15:53 UTC
(47 minutes ago)
VFR
Wind Visibility
170° at 10 knots 10 miles
Clouds
  • Clear skies
Temperature Dewpoint
21°C / 70°F 13°C / 55°F
Humidity Altimeter Pressure
60% 30.02" Hg 1016.6 hPa